createdAt,value
2018-10-21T00:02:07.014Z,45.30
2018-10-21T00:04:35.170Z,43.40
2018-10-21T00:07:03.318Z,42.10
2018-10-21T00:09:31.526Z,43.37
2018-10-21T00:12:00.720Z,43.47
2018-10-21T00:14:28.874Z,38.17
2018-10-21T00:16:57.035Z,44.97
2018-10-21T00:19:25.252Z,45.00
2018-10-21T00:21:53.423Z,42.40
2018-10-21T00:24:21.587Z,41.77
2018-10-21T00:26:49.795Z,42.10
2018-10-21T00:29:17.942Z,42.67
2018-10-21T00:31:46.115Z,43.57
2018-10-21T00:34:14.297Z,43.63
2018-10-21T00:36:42.472Z,43.87
2018-10-21T00:39:12.565Z,45.03
2018-10-21T00:41:40.969Z,48.13
2018-10-21T00:44:09.214Z,45.40
2018-10-21T00:46:37.618Z,46.67
2018-10-21T00:49:06.062Z,47.67
2018-10-21T00:51:34.277Z,47.43
2018-10-21T00:54:02.450Z,46.57
2018-10-21T00:56:30.639Z,47.30
2018-10-21T00:58:58.922Z,45.37
2018-10-21T01:01:27.192Z,45.77
2018-10-21T01:03:55.402Z,43.30
2018-10-21T01:06:23.587Z,42.80
2018-10-21T01:08:51.762Z,42.60
2018-10-21T01:11:19.996Z,46.00
2018-10-21T01:13:48.210Z,44.83
2018-10-21T01:16:16.443Z,42.67
2018-10-21T01:18:44.624Z,43.17
2018-10-21T01:21:12.883Z,42.43
2018-10-21T01:23:41.075Z,40.90
2018-10-21T01:26:09.014Z,42.23
2018-10-21T01:28:37.210Z,42.97
2018-10-21T01:31:05.391Z,43.23
2018-10-21T01:33:33.583Z,43.23
2018-10-21T01:36:01.779Z,41.43
2018-10-21T01:38:30.023Z,41.87
2018-10-21T01:40:59.382Z,42.00
2018-10-21T01:43:30.637Z,42.10
2018-10-21T01:45:59.246Z,40.67
2018-10-21T01:48:28.617Z,42.10
2018-10-21T01:50:56.860Z,38.67
2018-10-21T01:53:25.262Z,37.70
2018-10-21T01:55:53.459Z,41.27
2018-10-21T01:58:21.667Z,38.07
2018-10-21T02:00:49.859Z,37.27
2018-10-21T02:03:18.188Z,35.73
2018-10-21T02:05:46.946Z,36.60
2018-10-21T02:08:15.183Z,36.37
2018-10-21T02:10:43.409Z,35.60
2018-10-21T02:13:11.635Z,41.40
2018-10-21T02:15:39.787Z,38.93
2018-10-21T02:18:07.983Z,37.27
2018-10-21T02:20:36.194Z,38.37
2018-10-21T02:23:04.413Z,35.93
2018-10-21T02:25:32.585Z,35.40
2018-10-21T02:28:00.851Z,36.93
2018-10-21T02:30:29.857Z,35.50
2018-10-21T02:32:58.629Z,36.30
2018-10-21T02:35:26.812Z,38.27
2018-10-21T02:37:55.501Z,38.20
2018-10-21T02:41:33.789Z,38.90
2018-10-21T02:44:02.467Z,34.67
2018-10-21T02:46:30.950Z,39.20
2018-10-21T02:48:59.645Z,37.50
2018-10-21T02:51:27.805Z,40.17
2018-10-21T02:53:55.967Z,40.17
2018-10-21T02:56:24.134Z,41.27
2018-10-21T02:58:52.390Z,40.13
2018-10-21T03:01:20.576Z,39.00
2018-10-21T03:03:48.751Z,42.63
2018-10-21T03:06:16.921Z,43.10
2018-10-21T03:08:45.079Z,41.30
2018-10-21T03:11:13.298Z,41.53
2018-10-21T03:13:41.460Z,41.00
2018-10-21T03:16:09.623Z,40.10
2018-10-21T03:18:37.779Z,41.07
2018-10-21T03:21:05.964Z,38.47
2018-10-21T03:23:34.674Z,42.10
2018-10-21T03:26:02.915Z,45.50
2018-10-21T03:28:31.630Z,44.90
2018-10-21T03:31:00.117Z,42.17
2018-10-21T03:33:28.380Z,44.43
2018-10-21T03:35:56.487Z,43.57
2018-10-21T03:38:24.663Z,40.80
2018-10-21T03:40:52.947Z,36.00
2018-10-21T03:43:20.866Z,37.87
2018-10-21T03:45:49.095Z,39.40
2018-10-21T03:48:17.290Z,38.97
2018-10-21T03:50:45.482Z,38.53
2018-10-21T03:53:13.667Z,37.83
2018-10-21T03:55:42.774Z,38.97
2018-10-21T03:58:11.000Z,38.37
2018-10-21T04:00:39.252Z,39.17
2018-10-21T04:03:07.634Z,41.50
2018-10-21T04:05:36.071Z,38.40
2018-10-21T04:08:04.345Z,37.97
2018-10-21T04:10:32.730Z,39.70
2018-10-21T04:13:01.124Z,42.30
2018-10-21T04:15:29.331Z,41.27
2018-10-21T04:17:57.532Z,40.87
2018-10-21T04:20:25.732Z,40.07
2018-10-21T04:22:55.047Z,40.17
2018-10-21T04:25:24.138Z,38.53
2018-10-21T04:27:53.194Z,38.63
2018-10-21T04:30:23.421Z,41.07
2018-10-21T04:33:55.772Z,38.43
2018-10-21T04:36:27.087Z,38.83
2018-10-21T04:40:08.844Z,37.77
2018-10-21T04:42:36.989Z,38.63
2018-10-21T04:45:05.924Z,38.27
2018-10-21T04:47:34.148Z,40.03
2018-10-21T04:50:02.337Z,37.87
2018-10-21T04:52:31.388Z,37.90
2018-10-21T04:55:05.579Z,37.93
2018-10-21T04:57:33.774Z,39.57
2018-10-21T05:00:02.049Z,40.10
2018-10-21T05:02:31.051Z,36.10
2018-10-21T05:04:59.416Z,38.20
2018-10-21T05:07:27.709Z,38.90
2018-10-21T05:09:55.953Z,39.03
2018-10-21T05:12:24.103Z,39.90
2018-10-21T05:14:52.355Z,39.07
2018-10-21T05:17:20.541Z,40.17
2018-10-21T05:19:48.734Z,39.40
2018-10-21T05:22:17.052Z,38.37
2018-10-21T05:24:45.167Z,38.77
2018-10-21T05:27:13.447Z,39.30
2018-10-21T05:29:41.639Z,39.40
2018-10-21T05:32:09.882Z,41.33
2018-10-21T05:34:38.071Z,37.63
2018-10-21T05:37:06.313Z,37.03
2018-10-21T05:39:34.547Z,44.17
2018-10-21T05:42:02.756Z,38.13
2018-10-21T05:44:30.954Z,40.37
2018-10-21T05:46:59.137Z,39.07
2018-10-21T05:49:27.276Z,36.93
2018-10-21T05:51:55.474Z,37.70
2018-10-21T05:54:23.631Z,40.50
2018-10-21T05:56:52.098Z,40.87
2018-10-21T05:59:20.268Z,37.43
2018-10-21T06:01:48.698Z,38.43
2018-10-21T06:04:17.676Z,38.17
2018-10-21T06:06:45.827Z,38.30
2018-10-21T06:09:14.699Z,39.10
2018-10-21T06:11:42.850Z,40.77
2018-10-21T06:14:11.015Z,46.77
2018-10-21T06:16:45.572Z,47.50
2018-10-21T06:19:16.995Z,47.80
2018-10-21T06:21:45.179Z,47.70
2018-10-21T06:24:13.372Z,47.50
2018-10-21T06:26:41.547Z,46.33
2018-10-21T06:29:09.756Z,45.90
2018-10-21T06:31:37.940Z,47.23
2018-10-21T06:34:06.107Z,46.07
2018-10-21T06:36:34.334Z,44.50
2018-10-21T06:39:02.492Z,46.20
2018-10-21T06:41:30.671Z,45.57
2018-10-21T06:43:58.843Z,43.43
2018-10-21T06:46:27.055Z,41.90
2018-10-21T06:48:55.225Z,42.23
2018-10-21T06:51:23.380Z,41.30
2018-10-21T06:53:51.542Z,40.90
2018-10-21T06:56:19.805Z,39.57
2018-10-21T06:58:47.910Z,41.53
2018-10-21T07:01:16.071Z,41.67
2018-10-21T07:03:44.225Z,40.30
2018-10-21T07:06:30.211Z,41.20
2018-10-21T07:09:03.152Z,42.63
2018-10-21T07:11:31.107Z,41.40
2018-10-21T07:13:59.266Z,43.40
2018-10-21T07:16:27.556Z,41.33
2018-10-21T07:18:55.625Z,41.00
2018-10-21T07:21:23.787Z,42.37
2018-10-21T07:23:51.985Z,42.30
2018-10-21T07:26:20.164Z,43.30
2018-10-21T07:28:48.324Z,42.90
2018-10-21T07:31:16.802Z,42.93
2018-10-21T07:33:44.963Z,42.97
2018-10-21T07:36:13.144Z,42.87
2018-10-21T07:38:41.288Z,45.03
2018-10-21T07:41:09.427Z,42.30
2018-10-21T07:43:37.676Z,42.97
2018-10-21T07:46:05.992Z,42.83
2018-10-21T07:48:34.143Z,43.57
2018-10-21T07:51:02.331Z,43.50
2018-10-21T07:53:30.530Z,43.73
2018-10-21T07:55:58.770Z,45.30
2018-10-21T07:58:26.964Z,42.27
2018-10-21T08:00:55.176Z,38.53
2018-10-21T08:03:23.314Z,39.80
2018-10-21T08:06:02.991Z,40.23
2018-10-21T08:08:31.196Z,42.30
2018-10-21T08:10:59.365Z,37.93
2018-10-21T08:13:27.943Z,41.00
2018-10-21T08:15:56.145Z,39.27
2018-10-21T08:18:24.315Z,40.10
2018-10-21T08:20:52.607Z,39.80
2018-10-21T08:23:20.814Z,39.00
2018-10-21T08:25:50.138Z,41.30
2018-10-21T08:28:18.420Z,38.43
2018-10-21T08:30:46.571Z,39.60
2018-10-21T08:33:14.755Z,37.57
2018-10-21T08:35:42.946Z,37.30
2018-10-21T08:38:11.147Z,37.67
2018-10-21T08:40:39.324Z,39.73
2018-10-21T08:43:07.545Z,38.50
2018-10-21T08:45:35.729Z,38.10
2018-10-21T08:48:03.937Z,34.30
2018-10-21T08:50:32.114Z,37.63
2018-10-21T08:53:00.312Z,34.47
2018-10-21T08:55:28.496Z,36.10
2018-10-21T08:57:56.750Z,34.23
2018-10-21T09:00:24.922Z,33.63
2018-10-21T09:02:53.123Z,33.73
2018-10-21T09:05:21.311Z,34.40
2018-10-21T09:07:49.504Z,33.93
2018-10-21T09:10:18.197Z,33.53
2018-10-21T09:12:46.305Z,32.90
2018-10-21T09:15:17.785Z,32.67
2018-10-21T09:17:45.942Z,29.97
2018-10-21T09:20:16.293Z,28.10
2018-10-21T09:22:44.500Z,29.10
2018-10-21T09:25:13.376Z,29.63
2018-10-21T09:27:42.356Z,30.57
2018-10-21T09:30:13.096Z,29.20
2018-10-21T09:32:41.306Z,28.37
2018-10-21T09:35:11.940Z,28.80
2018-10-21T09:37:40.683Z,25.53
2018-10-21T09:40:10.832Z,26.67
2018-10-21T09:42:39.020Z,24.37
2018-10-21T09:45:08.343Z,24.13
2018-10-21T09:47:36.542Z,24.90
2018-10-21T09:50:04.975Z,25.17
2018-10-21T09:52:33.109Z,23.13
2018-10-21T09:55:01.404Z,25.20
2018-10-21T09:57:29.607Z,22.60
2018-10-21T09:59:58.030Z,24.53
2018-10-21T10:02:31.706Z,22.00
2018-10-21T10:04:59.917Z,22.73
2018-10-21T10:07:28.112Z,22.37
2018-10-21T10:09:56.319Z,23.07
2018-10-21T10:12:24.500Z,23.53
2018-10-21T10:14:52.704Z,25.20
2018-10-21T10:17:20.879Z,25.00
2018-10-21T10:19:49.107Z,23.20
2018-10-21T10:22:17.441Z,23.10
2018-10-21T10:24:45.566Z,22.70
2018-10-21T10:27:13.734Z,22.80
2018-10-21T10:29:41.919Z,22.53
2018-10-21T10:32:10.109Z,20.17
2018-10-21T10:34:38.359Z,24.03
2018-10-21T10:37:06.579Z,22.67
2018-10-21T10:39:34.739Z,23.23
2018-10-21T10:42:03.043Z,22.80
2018-10-21T10:44:31.131Z,21.50
2018-10-21T10:46:59.292Z,20.43
2018-10-21T10:49:27.460Z,22.07
2018-10-21T10:51:55.630Z,20.80
2018-10-21T10:54:23.788Z,20.80
2018-10-21T10:56:51.962Z,21.57
2018-10-21T10:59:20.126Z,18.43
2018-10-21T11:01:48.308Z,19.80
2018-10-21T11:04:16.544Z,20.20
2018-10-21T11:06:44.626Z,19.60
2018-10-21T11:09:13.070Z,17.37
2018-10-21T11:11:41.306Z,16.57
2018-10-21T11:14:09.318Z,17.10
2018-10-21T11:16:37.571Z,16.50
2018-10-21T11:19:05.844Z,16.23
2018-10-21T11:21:33.980Z,18.50
2018-10-21T11:24:02.202Z,16.93
2018-10-21T11:26:30.367Z,15.93
2018-10-21T11:28:58.547Z,16.37
2018-10-21T11:31:26.817Z,16.40
2018-10-21T11:33:55.019Z,15.87
2018-10-21T11:36:23.139Z,15.80
2018-10-21T11:38:51.307Z,15.70
2018-10-21T11:41:19.484Z,16.50
2018-10-21T11:43:47.682Z,16.03
2018-10-21T11:46:15.959Z,16.13
2018-10-21T11:48:44.155Z,13.37
2018-10-21T11:51:12.332Z,14.00
2018-10-21T11:53:40.611Z,13.57
2018-10-21T11:56:08.788Z,12.43
2018-10-21T11:58:36.982Z,14.27
2018-10-21T12:01:05.261Z,13.10
2018-10-21T12:03:33.373Z,13.07
2018-10-21T12:06:01.921Z,14.47
2018-10-21T12:08:30.115Z,13.70
2018-10-21T12:10:58.312Z,13.20
2018-10-21T12:13:26.506Z,12.40
2018-10-21T12:15:54.819Z,12.27
2018-10-21T12:18:24.019Z,11.30
2018-10-21T12:20:52.255Z,11.43
2018-10-21T12:23:20.460Z,10.50
2018-10-21T12:25:48.623Z,10.20
2018-10-21T12:28:16.873Z,8.40
2018-10-21T12:30:45.007Z,8.93
2018-10-21T12:33:13.203Z,9.37
2018-10-21T12:35:41.438Z,8.80
2018-10-21T12:38:09.614Z,7.93
2018-10-21T12:40:37.807Z,8.50
2018-10-21T12:43:06.058Z,7.90
2018-10-21T12:45:34.279Z,7.50
2018-10-21T12:48:02.338Z,9.70
2018-10-21T12:50:30.518Z,7.23
2018-10-21T12:52:58.747Z,6.60
2018-10-21T12:55:26.971Z,6.40
2018-10-21T12:59:19.644Z,5.97
2018-10-21T13:01:47.927Z,7.00
2018-10-21T13:04:16.243Z,6.43
2018-10-21T13:06:44.347Z,7.80
2018-10-21T13:09:12.507Z,8.17
2018-10-21T13:11:40.661Z,7.00
2018-10-21T13:14:08.865Z,6.50
2018-10-21T13:16:37.051Z,8.00
2018-10-21T13:19:05.417Z,6.80
2018-10-21T13:21:33.522Z,7.20
2018-10-21T13:28:54.016Z,7.70
2018-10-21T13:31:22.072Z,6.97
2018-10-21T13:33:50.307Z,6.43
2018-10-21T13:36:18.470Z,6.60
2018-10-21T13:38:46.633Z,6.20
2018-10-21T13:41:14.946Z,6.80
2018-10-21T13:43:43.104Z,5.73
2018-10-21T13:46:11.362Z,6.77
2018-10-21T13:48:39.514Z,6.10
2018-10-21T13:51:07.687Z,7.43
2018-10-21T13:53:35.938Z,6.97
2018-10-21T13:56:04.154Z,6.10
2018-10-21T13:58:32.337Z,6.93
2018-10-21T14:01:00.652Z,8.20
2018-10-21T14:03:28.884Z,7.00
2018-10-21T14:05:57.142Z,7.87
2018-10-21T14:08:25.302Z,7.80
2018-10-21T14:10:53.500Z,7.57
2018-10-21T14:13:21.652Z,7.27
2018-10-21T14:17:19.055Z,6.60
2018-10-21T14:19:47.210Z,5.60
2018-10-21T14:22:15.435Z,6.20
2018-10-21T14:24:43.695Z,6.70
2018-10-21T14:27:11.728Z,6.20
2018-10-21T14:29:39.919Z,7.17
2018-10-21T14:32:08.187Z,6.50
2018-10-21T14:34:36.323Z,6.00
2018-10-21T14:37:04.529Z,5.67
2018-10-21T14:39:32.690Z,6.10
2018-10-21T14:42:00.977Z,7.80
2018-10-21T14:44:29.112Z,5.50
2018-10-21T14:46:57.328Z,5.83
2018-10-21T14:49:25.659Z,6.60
2018-10-21T14:51:53.870Z,6.70
2018-10-21T14:54:22.031Z,6.37
2018-10-21T14:56:50.208Z,6.30
2018-10-21T14:59:18.359Z,6.60
2018-10-21T15:01:46.566Z,6.87
2018-10-21T15:04:14.804Z,19.67
2018-10-21T15:06:43.037Z,14.87
2018-10-21T15:09:13.077Z,19.83
2018-10-21T15:11:41.394Z,10.87
2018-10-21T15:14:10.406Z,9.00
2018-10-21T15:16:38.675Z,7.00
2018-10-21T15:19:13.723Z,5.60
2018-10-21T15:21:41.999Z,5.60
2018-10-21T15:24:10.152Z,6.60
2018-10-21T15:26:38.363Z,5.10
2018-10-21T15:29:06.744Z,5.37
2018-10-21T15:31:34.625Z,5.20
2018-10-21T15:34:02.864Z,5.10
2018-10-21T15:36:30.972Z,5.37
2018-10-21T15:38:59.139Z,5.73
2018-10-21T15:41:27.295Z,5.13
2018-10-21T15:43:55.492Z,5.40
2018-10-21T15:46:23.798Z,4.40
2018-10-21T15:48:51.895Z,4.63
2018-10-21T15:51:20.071Z,5.90
2018-10-21T15:53:48.263Z,5.20
2018-10-21T15:56:16.548Z,4.80
2018-10-21T15:58:44.640Z,5.53
2018-10-21T16:01:12.828Z,5.97
2018-10-21T16:03:41.027Z,5.40
2018-10-21T16:06:09.220Z,5.60
2018-10-21T16:08:37.417Z,5.47
2018-10-21T16:11:05.904Z,5.20
2018-10-21T16:13:34.186Z,6.00
2018-10-21T16:16:02.408Z,4.90
2018-10-21T16:18:30.574Z,4.73
2018-10-21T16:20:58.758Z,4.90
2018-10-21T16:23:26.965Z,5.00
2018-10-21T16:25:55.365Z,5.60
2018-10-21T16:28:23.687Z,4.47
2018-10-21T16:30:51.937Z,4.77
2018-10-21T16:33:19.878Z,5.37
2018-10-21T16:35:48.063Z,5.17
2018-10-21T16:38:16.377Z,4.83
2018-10-21T16:40:44.520Z,4.33
2018-10-21T16:43:12.707Z,5.03
2018-10-21T16:45:40.944Z,4.40
2018-10-21T16:48:09.188Z,5.50
2018-10-21T16:50:37.896Z,5.07
2018-10-21T16:53:05.528Z,5.70
2018-10-21T16:55:33.691Z,5.20
2018-10-21T16:58:01.883Z,6.57
2018-10-21T17:00:30.170Z,5.70
2018-10-21T17:02:58.262Z,6.80
2018-10-21T17:05:26.422Z,7.27
2018-10-21T17:07:54.620Z,8.27
2018-10-21T17:10:23.160Z,5.90
2018-10-21T17:12:50.984Z,5.17
2018-10-21T17:15:19.168Z,5.20
2018-10-21T17:17:47.355Z,4.80
2018-10-21T17:20:16.241Z,5.73
2018-10-21T17:22:44.896Z,5.20
2018-10-21T17:25:13.484Z,5.80
2018-10-21T17:27:41.737Z,5.57
2018-10-21T17:30:11.979Z,5.10
2018-10-21T17:32:39.897Z,6.07
2018-10-21T17:35:08.611Z,5.40
2018-10-21T17:37:36.819Z,6.53
2018-10-21T17:40:05.552Z,6.93
2018-10-21T17:42:33.766Z,5.67
2018-10-21T17:45:01.963Z,5.77
2018-10-21T17:47:30.186Z,6.27
2018-10-21T17:49:58.379Z,5.70
2018-10-21T17:52:26.825Z,5.43
2018-10-21T17:54:54.969Z,5.60
2018-10-21T17:57:23.191Z,5.30
2018-10-21T17:59:51.540Z,5.33
2018-10-21T18:02:19.765Z,5.13
2018-10-21T18:04:48.017Z,5.43
2018-10-21T18:07:16.224Z,5.80
2018-10-21T18:09:44.384Z,5.50
2018-10-21T18:12:12.646Z,5.47
2018-10-21T18:14:40.837Z,5.87
2018-10-21T18:17:10.094Z,5.93
2018-10-21T18:19:38.273Z,6.40
2018-10-21T18:22:06.491Z,5.47
2018-10-21T18:24:34.683Z,4.93
2018-10-21T18:27:02.913Z,5.00
2018-10-21T18:29:31.183Z,5.47
2018-10-21T18:31:59.110Z,6.20
2018-10-21T18:34:27.290Z,6.13
2018-10-21T18:36:55.510Z,6.07
2018-10-21T18:39:23.717Z,6.30
2018-10-21T18:41:51.969Z,6.10
2018-10-21T18:44:20.426Z,5.47
2018-10-21T18:46:48.624Z,6.30
2018-10-21T18:49:16.921Z,6.03
2018-10-21T18:51:45.074Z,5.07
2018-10-21T18:54:13.534Z,5.83
2018-10-21T18:56:41.791Z,5.27
2018-10-21T18:59:10.007Z,5.33
2018-10-21T19:01:38.253Z,5.20
2018-10-21T19:04:06.596Z,6.40
2018-10-21T19:06:34.894Z,5.00
2018-10-21T19:09:04.393Z,5.47
2018-10-21T19:11:32.583Z,4.40
2018-10-21T19:14:01.012Z,5.40
2018-10-21T19:16:29.203Z,5.97
2018-10-21T19:18:57.476Z,6.20
2018-10-21T19:21:25.627Z,5.67
2018-10-21T19:23:53.867Z,6.00
2018-10-21T19:26:22.055Z,6.40
2018-10-21T19:28:50.345Z,6.60
2018-10-21T19:31:18.521Z,6.30
2018-10-21T19:33:46.842Z,6.97
2018-10-21T19:36:14.772Z,7.13
2018-10-21T19:38:43.045Z,7.10
2018-10-21T19:41:11.296Z,7.37
2018-10-21T19:43:39.548Z,7.37
2018-10-21T19:46:07.722Z,7.27
2018-10-21T19:48:35.846Z,7.60
2018-10-21T19:51:04.427Z,6.20
2018-10-21T19:53:32.597Z,6.40
2018-10-21T19:56:00.771Z,6.77
2018-10-21T19:58:29.010Z,5.90
2018-10-21T20:00:57.219Z,5.60
2018-10-21T20:03:25.547Z,6.47
2018-10-21T20:05:53.815Z,6.27
2018-10-21T20:08:22.091Z,5.77
2018-10-21T20:10:50.368Z,5.90
2018-10-21T20:13:18.584Z,6.13
2018-10-21T20:15:46.687Z,6.20
2018-10-21T20:18:14.932Z,7.33
2018-10-21T20:20:43.264Z,6.80
2018-10-21T20:23:11.467Z,7.80
2018-10-21T20:25:39.722Z,7.50
2018-10-21T20:28:07.976Z,5.97
2018-10-21T20:30:36.203Z,6.83
2018-10-21T20:33:04.405Z,6.47
2018-10-21T20:35:32.561Z,6.00
2018-10-21T20:38:00.520Z,6.03
2018-10-21T20:40:28.485Z,6.50
2018-10-21T20:42:56.930Z,6.23
2018-10-21T20:45:25.134Z,6.93
2018-10-21T20:47:53.299Z,6.53
2018-10-21T20:50:21.627Z,6.27
2018-10-21T20:52:49.791Z,6.10
2018-10-21T20:55:18.056Z,7.23
2018-10-21T20:57:46.289Z,7.20
2018-10-21T21:00:14.689Z,7.47
2018-10-21T21:02:42.837Z,6.20
2018-10-21T21:05:11.030Z,6.70
2018-10-21T21:07:39.309Z,6.03
2018-10-21T21:10:08.052Z,5.90
2018-10-21T21:12:36.193Z,7.60
2018-10-21T21:15:04.417Z,7.00
2018-10-21T21:17:32.643Z,7.50
2018-10-21T21:20:01.549Z,8.13
2018-10-21T21:22:29.833Z,7.47
2018-10-21T21:24:58.144Z,8.20
2018-10-21T21:27:26.521Z,6.47
2018-10-21T21:29:54.980Z,6.57
2018-10-21T21:32:23.387Z,6.33
2018-10-21T21:34:51.800Z,5.73
2018-10-21T21:37:20.290Z,6.77
2018-10-21T21:39:48.308Z,8.57
2018-10-21T21:42:16.714Z,8.47
2018-10-21T21:44:45.004Z,7.70
2018-10-21T21:47:13.322Z,8.00
2018-10-21T21:49:41.647Z,8.00
2018-10-21T21:52:10.018Z,7.80
2018-10-21T21:54:38.205Z,7.20
2018-10-21T21:57:06.498Z,7.23
2018-10-21T21:59:34.797Z,6.83
2018-10-21T22:02:03.246Z,7.20
2018-10-21T22:04:31.706Z,7.33
2018-10-21T22:07:00.099Z,5.93
2018-10-21T22:09:28.612Z,6.80
2018-10-21T22:11:57.010Z,5.70
2018-10-21T22:14:25.472Z,6.27
2018-10-21T22:16:53.733Z,6.47
2018-10-21T22:19:22.003Z,6.00
2018-10-21T22:21:50.419Z,6.30
2018-10-21T22:24:18.728Z,5.93
2018-10-21T22:26:47.002Z,7.10
2018-10-21T22:29:15.239Z,6.00
2018-10-21T22:31:43.544Z,6.33
2018-10-21T22:34:11.900Z,5.50
2018-10-21T22:36:40.122Z,5.40
2018-10-21T22:39:08.491Z,6.97
2018-10-21T22:41:37.917Z,6.40
2018-10-21T22:44:05.873Z,6.60
2018-10-21T22:46:34.175Z,6.67
2018-10-21T22:49:02.415Z,6.30
2018-10-21T22:51:30.721Z,6.40
2018-10-21T22:53:58.991Z,6.50
2018-10-21T22:56:27.485Z,6.97
2018-10-21T22:58:55.768Z,6.10
2018-10-21T23:01:27.648Z,6.35
2018-10-21T23:03:56.296Z,6.60
2018-10-21T23:06:24.395Z,5.80
2018-10-21T23:08:52.752Z,5.83
2018-10-21T23:11:21.309Z,6.33
2018-10-21T23:13:49.550Z,6.27
2018-10-21T23:16:17.958Z,6.37
2018-10-21T23:18:46.285Z,5.80
2018-10-21T23:21:14.716Z,6.33
2018-10-21T23:23:43.108Z,6.00
2018-10-21T23:26:11.601Z,6.42
2018-10-21T23:28:39.968Z,6.10
2018-10-21T23:31:08.347Z,6.00
2018-10-21T23:33:36.812Z,6.03
2018-10-21T23:36:05.207Z,5.50
2018-10-21T23:38:33.694Z,5.92
2018-10-21T23:41:01.800Z,6.40
2018-10-21T23:43:30.288Z,5.60
2018-10-21T23:45:58.864Z,5.97
2018-10-21T23:48:27.143Z,5.70
2018-10-21T23:50:55.449Z,5.55
2018-10-21T23:53:23.833Z,5.85
2018-10-21T23:55:52.151Z,5.35
2018-10-21T23:58:20.534Z,5.42
